South Sterling, Pennsylvania
Current Conditions -  °F | °C
As of 1:53 PM on Thursday 18 Dec 2014 (Local Time) from KMPO Reporting Station
Overcast Overcast  
Wind Chill: 21°   Ceiling: 1800
Heat Index: 30°   Visibility: 10mi
Dew Point: 22°   Wind: 12mph
Humidity: 72%   Direction: 300°WNW
Pressure: 29.91"   Gusts: 24mph
Location:  41.26°N, 75.35°W
Report Text: KMPO 181853Z AUTO 30010G21KT 10SM OVC018 M01/M06 A2991 RMK AO2 SLP149 T10111056
Loading
Personal Weather Stations






























Interactive Weather Map New forecast layout! Learn more

10-Day Weather Forecast

Advertisements
Track Severe Weather on mobile